Time;durP1;ratioP1;P1;durP2;ratioP2;P2;SDS_P1;SDS_P2;PMS_P1;PMS_P2;Temp;Humidity;BMP_temperature;BMP_pressure;BME280_temperature;BME280_humidity;BME280_pressure;Samples;Min_cycle;Max_cycle;Signal;HPM_P1;HPM_P2
2022/12/14 00:01:31;;;;;;;;;;;;;;;2.85;69.86;99806.94;5008098;28;19921;-82
2022/12/14 00:03:56;;;;;;;;;;;;;;;2.91;70.10;99800.97;5007735;28;19925;-82
2022/12/14 00:06:23;;;;;;;;;;;;;;;2.82;70.12;99804.28;5008349;28;19929;-82
2022/12/14 00:08:49;;;;;;;;;;;;;;;2.78;70.23;99817.22;4990199;28;20420;-82
2022/12/14 00:11:15;;;;;;;;;;;;;;;2.92;70.23;99820.97;5007652;28;19961;-82
2022/12/14 00:13:42;;;;;;;;;;;;;;;2.93;69.60;99825.31;5008125;28;19917;-82
2022/12/14 00:16:09;;;;;;;;;;;;;;;2.90;70.01;99821.78;5008251;28;19917;-81
2022/12/14 00:18:34;;;;;;;;;;;;;;;2.84;70.22;99828.66;5007571;28;19960;-82
2022/12/14 00:21:03;;;;;;;;;;;;;;;2.73;70.26;99813.66;5007991;28;19968;-82
2022/12/14 00:23:29;;;;;;;;;;;;;;;2.77;70.67;99824.19;5007300;28;19967;-82
2022/12/14 00:25:54;;;;;;;;;;;;;;;2.81;70.05;99822.50;5007262;28;19957;-82
2022/12/14 00:28:19;;;;;;;;;;;;;;;2.54;69.91;99831.56;5007510;28;19924;-82
2022/12/14 00:30:44;;;;;;;;;;;;;;;2.87;69.57;99830.44;5008084;28;19921;-82
2022/12/14 00:33:10;;;;;;;;;;;;;;;2.96;69.28;99824.50;5007259;28;19929;-82
2022/12/14 00:35:35;;;;;;;;;;;;;;;3.01;68.88;99831.56;5007660;28;20011;-82
2022/12/14 00:38:00;;;;;;;;;;;;;;;3.01;69.29;99818.53;5007946;28;19917;-84
2022/12/14 00:40:26;;;;;;;;;;;;;;;3.12;69.29;99823.03;5007904;28;20083;-82
2022/12/14 00:42:52;;;;;;;;;;;;;;;2.90;69.60;99822.66;5007897;28;19917;-82
2022/12/14 00:45:17;;;;;;;;;;;;;;;3.17;68.93;99808.38;5007362;28;20380;-83
2022/12/14 00:47:42;;;;;;;;;;;;;;;3.03;68.43;99802.94;5007130;28;19913;-83
2022/12/14 00:50:08;;;;;;;;;;;;;;;2.83;69.85;99793.03;5007170;28;19933;-82
2022/12/14 00:52:33;;;;;;;;;;;;;;;2.89;69.45;99793.97;4989012;28;19920;-82
2022/12/14 00:54:59;;;;;;;;;;;;;;;2.63;70.30;99797.88;5008870;28;19948;-82
2022/12/14 00:57:24;;;;;;;;;;;;;;;2.59;69.94;99803.00;5011349;28;20004;-81
2022/12/14 00:59:49;;;;;;;;;;;;;;;2.59;70.58;99809.06;5011686;28;19927;-82
2022/12/14 01:02:15;;;;;;;;;;;;;;;2.87;69.30;99809.59;5011303;28;19917;-82
2022/12/14 01:04:40;;;;;;;;;;;;;;;2.78;69.36;99814.63;5011376;28;19921;-82
2022/12/14 01:07:05;;;;;;;;;;;;;;;2.90;68.57;99816.59;5010738;28;19929;-82
2022/12/14 01:09:31;;;;;;;;;;;;;;;2.85;68.60;99819.97;5011172;28;20436;-82
2022/12/14 01:11:56;;;;;;;;;;;;;;;2.96;67.93;99825.38;5011390;28;20439;-81
2022/12/14 01:14:21;;;;;;;;;;;;;;;2.83;67.90;99818.22;5011480;28;19921;-82
2022/12/14 01:16:47;;;;;;;;;;;;;;;2.86;67.82;99813.94;5010825;28;19933;-82
2022/12/14 01:19:13;;;;;;;;;;;;;;;3.05;67.76;99816.84;4991962;28;19913;-83
2022/12/14 01:21:38;;;;;;;;;;;;;;;3.09;67.12;99816.06;5001998;28;19922;-82
2022/12/14 01:24:04;;;;;;;;;;;;;;;3.05;66.62;99816.84;4991206;28;19940;-82
2022/12/14 01:26:32;;;;;;;;;;;;;;;2.97;66.83;99821.94;5001372;28;19985;-82
2022/12/14 01:28:58;;;;;;;;;;;;;;;2.96;65.90;99817.56;5011104;28;20006;-83
2022/12/14 01:31:25;;;;;;;;;;;;;;;3.04;65.87;99818.59;4993270;28;19921;-85
2022/12/14 01:33:50;;;;;;;;;;;;;;;2.96;66.44;99804.53;5010689;28;19921;-83
2022/12/14 01:36:17;;;;;;;;;;;;;;;2.54;65.85;99800.31;5010013;28;19967;-82
2022/12/14 01:38:43;;;;;;;;;;;;;;;2.58;65.49;99807.34;5010172;28;19917;-83
2022/12/14 01:41:16;;;;;;;;;;;;;;;2.61;65.48;99809.09;5010293;28;19924;-82
2022/12/14 01:43:46;;;;;;;;;;;;;;;2.56;66.14;99801.19;5009896;28;19913;-82
2022/12/14 01:46:11;;;;;;;;;;;;;;;2.40;66.05;99807.84;4992344;28;19917;-82
2022/12/14 01:48:37;;;;;;;;;;;;;;;2.59;66.36;99806.47;5010177;28;19909;-83
2022/12/14 01:51:02;;;;;;;;;;;;;;;2.77;65.91;99825.91;5010229;28;19927;-83
2022/12/14 01:53:28;;;;;;;;;;;;;;;2.80;65.63;99826.84;5010988;28;19921;-84
2022/12/14 01:55:54;;;;;;;;;;;;;;;3.00;64.88;99827.19;5010359;28;19920;-83
2022/12/14 01:58:20;;;;;;;;;;;;;;;2.97;64.75;99823.69;5010567;28;19921;-82
2022/12/14 02:00:46;;;;;;;;;;;;;;;3.13;64.17;99823.06;4988575;28;20040;-82
2022/12/14 02:03:15;;;;;;;;;;;;;;;3.13;64.77;99822.19;4990583;28;20008;-83
2022/12/14 02:05:43;;;;;;;;;;;;;;;3.11;64.85;99818.69;4991628;28;19925;-83
2022/12/14 02:08:09;;;;;;;;;;;;;;;3.18;64.25;99817.94;5010626;28;19925;-83
2022/12/14 02:10:35;;;;;;;;;;;;;;;3.22;64.33;99830.19;5010251;28;19925;-83
2022/12/14 02:13:05;;;;;;;;;;;;;;;3.17;64.17;99821.41;5010080;28;19934;-83
2022/12/14 02:15:32;;;;;;;;;;;;;;;3.11;64.04;99823.91;5010533;28;19917;-81
2022/12/14 02:17:58;;;;;;;;;;;;;;;2.93;63.98;99829.66;5010000;28;19913;-82
2022/12/14 02:20:27;;;;;;;;;;;;;;;3.00;64.19;99824.59;5010085;28;19975;-82
2022/12/14 02:23:04;;;;;;;;;;;;;;;2.79;65.68;99821.59;4992669;28;19956;-82
2022/12/14 02:25:36;;;;;;;;;;;;;;;2.96;65.20;99822.78;4991709;28;20300;-83
2022/12/14 02:28:04;;;;;;;;;;;;;;;3.13;64.90;99830.03;5009557;28;19925;-83
2022/12/14 02:30:36;;;;;;;;;;;;;;;3.18;64.77;99829.25;5009965;28;20398;-82
2022/12/14 02:33:07;;;;;;;;;;;;;;;3.35;64.78;99831.25;5009849;28;20445;-82
2022/12/14 02:35:32;;;;;;;;;;;;;;;3.33;64.62;99838.19;5010175;28;19917;-83
2022/12/14 02:37:58;;;;;;;;;;;;;;;3.05;64.50;99829.88;5009654;28;19928;-82
2022/12/14 02:40:23;;;;;;;;;;;;;;;2.99;64.47;99841.06;5009756;28;19913;-82
2022/12/14 02:42:55;;;;;;;;;;;;;;;3.22;64.64;99827.56;5009693;28;20040;-82
2022/12/14 02:45:46;;;;;;;;;;;;;;;2.95;65.01;99826.25;5009486;28;21015;-83
2022/12/14 02:48:21;;;;;;;;;;;;;;;2.92;64.91;99828.81;5005949;28;19982;-82
2022/12/14 02:50:50;;;;;;;;;;;;;;;2.88;64.72;99826.13;5009353;28;19991;-82
2022/12/14 02:53:18;;;;;;;;;;;;;;;2.93;65.34;99824.47;5008803;28;19918;-82
2022/12/14 02:55:47;;;;;;;;;;;;;;;2.91;64.26;99827.03;5009050;28;19921;-82
2022/12/14 02:58:12;;;;;;;;;;;;;;;2.90;65.04;99827.00;5009650;28;19955;-82
2022/12/14 03:00:38;;;;;;;;;;;;;;;2.93;64.80;99832.28;5009285;28;19957;-82
2022/12/14 03:03:04;;;;;;;;;;;;;;;2.94;65.28;99828.84;5009058;28;19917;-82
2022/12/14 03:05:30;;;;;;;;;;;;;;;3.13;64.26;99828.28;5009190;28;19917;-83
2022/12/14 03:07:59;;;;;;;;;;;;;;;2.98;64.87;99831.53;5009169;28;20003;-82
2022/12/14 03:10:44;;;;;;;;;;;;;;;2.91;65.04;99834.00;5008753;28;19917;-82
2022/12/14 03:13:18;;;;;;;;;;;;;;;2.82;65.83;99822.53;5007444;28;19928;-82
2022/12/14 03:15:46;;;;;;;;;;;;;;;2.54;67.20;99818.53;5009410;28;20008;-81
2022/12/14 03:18:12;;;;;;;;;;;;;;;2.39;67.75;99821.69;5008566;28;19921;-82
2022/12/14 03:20:41;;;;;;;;;;;;;;;2.31;68.26;99811.13;5008231;28;19921;-82
2022/12/14 03:23:09;;;;;;;;;;;;;;;2.15;68.89;99799.53;5008586;28;19922;-82
2022/12/14 03:25:44;;;;;;;;;;;;;;;2.13;69.24;99814.25;5008358;28;20016;-83
2022/12/14 03:28:16;;;;;;;;;;;;;;;2.14;69.62;99809.91;5008785;28;20315;-83
2022/12/14 03:30:42;;;;;;;;;;;;;;;2.17;69.86;99802.19;5008456;28;19917;-82
2022/12/14 03:33:14;;;;;;;;;;;;;;;2.05;70.96;99801.91;5008585;28;19921;-82
2022/12/14 03:35:48;;;;;;;;;;;;;;;2.12;70.36;99804.69;5008930;28;19913;-82
2022/12/14 03:38:13;;;;;;;;;;;;;;;2.20;70.26;99798.78;5008837;28;19924;-82
2022/12/14 03:41:05;;;;;;;;;;;;;;;2.02;71.16;99796.66;5009325;28;20403;-84
2022/12/14 03:43:35;;;;;;;;;;;;;;;2.08;71.44;99794.19;5004312;28;19933;-82
2022/12/14 03:46:07;;;;;;;;;;;;;;;2.04;71.40;99807.97;4990870;28;20232;-81
2022/12/14 03:48:32;;;;;;;;;;;;;;;2.29;71.15;99814.56;5008512;28;19913;-80
2022/12/14 03:51:03;;;;;;;;;;;;;;;2.47;70.00;99819.25;5007801;28;19937;-81
2022/12/14 03:53:47;;;;;;;;;;;;;;;2.77;69.37;99825.91;5008330;28;20406;-81
2022/12/14 03:56:17;;;;;;;;;;;;;;;2.88;69.09;99826.13;5008833;28;19924;-81
2022/12/14 03:58:51;;;;;;;;;;;;;;;3.05;68.22;99829.88;5008400;28;20423;-83
2022/12/14 04:01:31;;;;;;;;;;;;;;;2.88;68.49;99820.91;5007611;28;20388;-82
2022/12/14 04:04:00;;;;;;;;;;;;;;;2.61;69.69;99822.13;4989885;28;20376;-81
2022/12/14 04:06:28;;;;;;;;;;;;;;;2.74;70.15;99818.91;5007867;28;20461;-82
2022/12/14 04:09:06;;;;;;;;;;;;;;;2.67;70.53;99815.31;5008224;28;20008;-82
2022/12/14 04:20:12;;;;;;;;;;;;;;;2.79;70.64;99796.41;5007161;28;19964;-81
2022/12/14 04:22:38;;;;;;;;;;;;;;;2.82;70.51;99793.88;5004720;28;19945;-80
2022/12/14 04:28:04;;;;;;;;;;;;;;;3.08;70.11;99793.44;4988496;28;19925;-80
2022/12/14 04:30:31;;;;;;;;;;;;;;;3.12;69.56;99802.19;4999215;28;20303;-81
2022/12/14 04:33:45;;;;;;;;;;;;;;;3.26;69.51;99803.31;5001560;28;19914;-81
2022/12/14 04:35:53;;;;;;;;;;;;;;;3.25;68.57;99798.06;4989715;28;19928;-81
2022/12/14 04:38:21;;;;;;;;;;;;;;;3.18;68.83;99799.69;4987706;28;19917;-80
2022/12/14 04:40:46;;;;;;;;;;;;;;;3.16;68.98;99804.88;4973014;28;19941;-79
2022/12/14 04:43:13;;;;;;;;;;;;;;;3.17;68.34;99798.81;5004338;28;20375;-80
2022/12/14 04:45:41;;;;;;;;;;;;;;;3.11;68.18;99790.03;4991057;28;19917;-80
2022/12/14 04:48:17;;;;;;;;;;;;;;;3.10;67.41;99799.56;4991873;28;19913;-80
2022/12/14 04:50:45;;;;;;;;;;;;;;;2.74;68.30;99800.69;5005980;28;20063;-80
2022/12/14 04:53:12;;;;;;;;;;;;;;;2.82;67.83;99796.47;5005909;28;19925;-81
2022/12/14 04:55:37;;;;;;;;;;;;;;;2.62;68.61;99783.09;4990731;28;19914;-81
2022/12/14 04:58:03;;;;;;;;;;;;;;;2.47;69.47;99788.00;5002978;28;19921;-79
2022/12/14 05:00:33;;;;;;;;;;;;;;;2.63;68.73;99808.28;4998173;28;20421;-82
2022/12/14 05:03:02;;;;;;;;;;;;;;;2.82;68.74;99821.66;4994424;28;19928;-80
2022/12/14 05:05:27;;;;;;;;;;;;;;;2.88;67.95;99820.91;5006648;28;19922;-80
2022/12/14 05:08:08;;;;;;;;;;;;;;;2.87;68.10;99825.22;4986437;28;19929;-80
2022/12/14 05:10:34;;;;;;;;;;;;;;;2.77;68.42;99816.38;5007059;28;19996;-80
2022/12/14 05:13:08;;;;;;;;;;;;;;;2.88;68.21;99824.38;4994895;28;20012;-81
2022/12/14 05:15:55;;;;;;;;;;;;;;;2.79;67.58;99826.81;5006420;28;19931;-81
2022/12/14 05:18:21;;;;;;;;;;;;;;;2.89;66.83;99826.16;5005373;28;20362;-80
2022/12/14 05:20:46;;;;;;;;;;;;;;;2.70;66.67;99827.50;4998134;28;19921;-80
2022/12/14 05:23:12;;;;;;;;;;;;;;;2.61;67.01;99829.94;5000959;28;19921;-80
2022/12/14 05:25:37;;;;;;;;;;;;;;;2.64;67.34;99830.91;4997690;28;19975;-81
2022/12/14 05:28:02;;;;;;;;;;;;;;;2.77;66.72;99829.38;4993395;28;19918;-79
2022/12/14 05:30:28;;;;;;;;;;;;;;;2.78;66.16;99825.94;5004928;28;19921;-80
2022/12/14 05:32:53;;;;;;;;;;;;;;;2.65;66.37;99813.53;4993098;28;19925;-82
2022/12/14 05:35:19;;;;;;;;;;;;;;;2.51;67.04;99818.47;4993152;28;19925;-78
2022/12/14 05:37:44;;;;;;;;;;;;;;;2.47;67.03;99835.78;5006669;28;20461;-79
2022/12/14 05:40:10;;;;;;;;;;;;;;;2.68;67.04;99845.72;5005890;28;19925;-79
2022/12/14 05:42:35;;;;;;;;;;;;;;;2.73;66.29;99837.97;5002915;28;19921;-78
2022/12/14 05:45:00;;;;;;;;;;;;;;;2.75;66.27;99836.31;4996304;28;20311;-78
2022/12/14 05:47:26;;;;;;;;;;;;;;;2.74;67.07;99818.03;5003240;28;19921;-79
2022/12/14 05:49:52;;;;;;;;;;;;;;;2.51;67.75;99827.16;4988222;28;19928;-78
2022/12/14 05:52:17;;;;;;;;;;;;;;;2.35;69.31;99826.81;5010382;28;20339;-79
2022/12/14 05:54:43;;;;;;;;;;;;;;;2.22;69.70;99839.56;5009079;28;19917;-79
2022/12/14 05:57:08;;;;;;;;;;;;;;;2.52;68.95;99838.47;4996004;28;20334;-78
2022/12/14 05:59:33;;;;;;;;;;;;;;;2.76;68.79;99842.38;5009791;28;19943;-79
2022/12/14 06:01:59;;;;;;;;;;;;;;;2.69;68.22;99851.81;5009484;28;20035;-79
2022/12/14 06:04:24;;;;;;;;;;;;;;;2.74;68.53;99859.72;5007209;28;19956;-78
2022/12/14 06:06:50;;;;;;;;;;;;;;;2.87;67.30;99864.31;5006199;28;19925;-80
2022/12/14 06:09:16;;;;;;;;;;;;;;;2.68;67.81;99865.69;5008796;28;19921;-81
2022/12/14 06:11:42;;;;;;;;;;;;;;;2.80;68.30;99868.53;5009967;28;20465;-79
2022/12/14 06:14:08;;;;;;;;;;;;;;;3.00;67.52;99866.28;5010032;28;19956;-79
2022/12/14 06:16:33;;;;;;;;;;;;;;;2.99;67.62;99868.88;4991161;28;19921;-79
2022/12/14 06:19:00;;;;;;;;;;;;;;;3.05;67.34;99867.25;5009875;28;20053;-80
2022/12/14 06:21:27;;;;;;;;;;;;;;;3.19;66.47;99871.84;5010225;28;20000;-79
2022/12/14 06:23:53;;;;;;;;;;;;;;;3.33;66.71;99867.72;5010003;28;19946;-79
2022/12/14 06:26:18;;;;;;;;;;;;;;;3.47;66.54;99877.53;5007333;28;19921;-78
2022/12/14 06:28:43;;;;;;;;;;;;;;;3.44;65.79;99873.13;5003114;28;19925;-79
2022/12/14 06:31:16;;;;;;;;;;;;;;;3.35;66.26;99868.66;5008841;28;20375;-78
2022/12/14 06:33:42;;;;;;;;;;;;;;;3.37;65.91;99866.94;5008572;28;19936;-79
2022/12/14 06:36:15;;;;;;;;;;;;;;;3.54;65.32;99862.00;5009865;28;19921;-78
2022/12/14 06:38:40;;;;;;;;;;;;;;;3.57;66.70;99862.06;5009251;28;19928;-80
2022/12/14 06:41:09;;;;;;;;;;;;;;;3.96;68.76;99873.06;5000289;28;19918;-78
2022/12/14 06:43:34;;;;;;;;;;;;;;;4.25;67.61;99870.88;5002353;28;20384;-77
2022/12/14 06:45:59;;;;;;;;;;;;;;;4.60;67.52;99870.47;4995548;28;19932;-78
2022/12/14 06:48:25;;;;;;;;;;;;;;;4.85;66.05;99873.34;5007911;28;19917;-78
2022/12/14 06:50:50;;;;;;;;;;;;;;;5.18;65.83;99879.78;5000612;28;20409;-78
2022/12/14 06:53:15;;;;;;;;;;;;;;;5.46;64.87;99878.28;5007287;28;20347;-78
2022/12/14 06:55:40;;;;;;;;;;;;;;;5.85;63.07;99889.94;5007021;28;19917;-78
2022/12/14 06:58:09;;;;;;;;;;;;;;;5.95;62.04;99879.53;5009332;28;19913;-77
2022/12/14 07:00:34;;;;;;;;;;;;;;;5.92;61.28;99898.72;5008564;28;19924;-78
2022/12/14 07:03:00;;;;;;;;;;;;;;;5.91;61.64;99884.75;5008194;28;20315;-78
2022/12/14 07:05:25;;;;;;;;;;;;;;;5.75;60.35;99890.75;5008699;28;19921;-77
2022/12/14 07:07:50;;;;;;;;;;;;;;;5.64;59.29;99890.66;5007773;28;19921;-80
2022/12/14 07:10:16;;;;;;;;;;;;;;;5.60;60.06;99890.63;5008695;28;19924;-78
2022/12/14 07:12:41;;;;;;;;;;;;;;;5.57;59.78;99899.31;5009155;28;19975;-77
2022/12/14 07:15:07;;;;;;;;;;;;;;;4.99;59.67;99903.13;5008680;28;20365;-78
2022/12/14 07:17:33;;;;;;;;;;;;;;;4.77;60.26;99891.56;5009022;28;19932;-78
2022/12/14 07:19:59;;;;;;;;;;;;;;;5.05;60.39;99899.72;5009329;28;20387;-77
2022/12/14 07:22:24;;;;;;;;;;;;;;;5.12;57.95;99908.50;5008539;28;19917;-78
2022/12/14 07:24:49;;;;;;;;;;;;;;;5.04;58.22;99913.63;5008773;28;19917;-78
2022/12/14 07:27:17;;;;;;;;;;;;;;;5.23;57.60;99912.09;5009119;28;19918;-78
2022/12/14 07:29:43;;;;;;;;;;;;;;;4.87;56.20;99921.28;5008908;28;20380;-77
2022/12/14 07:32:08;;;;;;;;;;;;;;;4.85;55.30;99912.56;5008781;28;19917;-78
2022/12/14 07:34:34;;;;;;;;;;;;;;;5.00;54.85;99904.00;5008663;28;19913;-78
2022/12/14 07:36:59;;;;;;;;;;;;;;;5.02;54.27;99900.56;5008380;28;19983;-78
2022/12/14 07:39:25;;;;;;;;;;;;;;;5.09;55.04;99890.16;4991456;28;20303;-78
2022/12/14 07:41:51;;;;;;;;;;;;;;;5.02;54.11;99899.69;5008826;28;19948;-78
2022/12/14 07:44:16;;;;;;;;;;;;;;;5.01;54.50;99897.91;5008339;28;19917;-78
2022/12/14 07:46:41;;;;;;;;;;;;;;;4.64;54.77;99895.75;5008504;28;19917;-78
2022/12/14 07:49:07;;;;;;;;;;;;;;;4.55;56.10;99893.03;5008232;28;19951;-78
2022/12/14 07:51:35;;;;;;;;;;;;;;;4.43;56.35;99893.75;5008258;28;19924;-78
2022/12/14 07:54:01;;;;;;;;;;;;;;;4.51;55.93;99891.25;4990295;28;19921;-78
2022/12/14 07:56:31;;;;;;;;;;;;;;;4.76;55.40;99897.63;5008434;28;20379;-77
2022/12/14 07:58:57;;;;;;;;;;;;;;;4.65;55.94;99899.25;5008368;28;19924;-78
2022/12/14 08:01:24;;;;;;;;;;;;;;;4.71;54.92;99903.66;5008361;28;19921;-79
2022/12/14 08:03:51;;;;;;;;;;;;;;;4.48;55.89;99901.66;5007866;28;19917;-79
2022/12/14 08:06:17;;;;;;;;;;;;;;;4.19;57.14;99906.47;5007846;28;20027;-79
2022/12/14 08:08:43;;;;;;;;;;;;;;;4.24;57.06;99910.03;5008392;28;19999;-78
2022/12/14 08:11:09;;;;;;;;;;;;;;;4.40;56.58;99913.72;5007826;28;20012;-78
2022/12/14 08:13:34;;;;;;;;;;;;;;;4.32;57.07;99911.00;5008038;28;19968;-78
2022/12/14 08:16:07;;;;;;;;;;;;;;;4.27;57.31;99907.47;5008113;28;19922;-78
2022/12/14 08:18:32;;;;;;;;;;;;;;;4.12;57.30;99908.09;4989939;28;19945;-78
2022/12/14 08:20:58;;;;;;;;;;;;;;;4.21;57.83;99909.97;4990394;28;19917;-78
2022/12/14 08:23:24;;;;;;;;;;;;;;;4.48;57.73;99915.59;5008006;28;19917;-78
2022/12/14 08:25:56;;;;;;;;;;;;;;;4.65;55.55;99918.41;5008126;28;19917;-78
2022/12/14 08:28:22;;;;;;;;;;;;;;;4.82;55.94;99917.75;5007769;28;19920;-78
2022/12/14 08:30:47;;;;;;;;;;;;;;;4.81;55.76;99906.41;5007731;28;19944;-79
2022/12/14 08:33:13;;;;;;;;;;;;;;;4.80;56.31;99915.13;4989565;28;19961;-78
2022/12/14 08:35:38;;;;;;;;;;;;;;;5.14;55.36;99918.13;5007840;28;19963;-77
2022/12/14 08:38:03;;;;;;;;;;;;;;;5.41;55.35;99920.97;5007439;28;20362;-77
2022/12/14 08:40:29;;;;;;;;;;;;;;;5.19;54.77;99919.03;5007929;28;19917;-78
2022/12/14 08:42:54;;;;;;;;;;;;;;;5.37;53.85;99931.41;5007822;28;19937;-78
2022/12/14 08:45:19;;;;;;;;;;;;;;;5.17;53.73;99923.38;5007292;28;19925;-79
2022/12/14 08:47:48;;;;;;;;;;;;;;;5.03;53.71;99914.50;5007644;28;19913;-78
2022/12/14 08:50:14;;;;;;;;;;;;;;;5.03;54.36;99911.88;5006961;28;19920;-79
2022/12/14 08:52:39;;;;;;;;;;;;;;;4.91;55.54;99907.41;5006866;28;19917;-78
2022/12/14 08:55:05;;;;;;;;;;;;;;;4.93;54.01;99905.69;5007632;28;20000;-79
2022/12/14 08:57:30;;;;;;;;;;;;;;;5.10;53.71;99905.00;5006975;28;20015;-78
2022/12/14 08:59:55;;;;;;;;;;;;;;;5.52;53.18;99901.91;5007609;28;19917;-78
2022/12/14 09:02:21;;;;;;;;;;;;;;;5.43;52.77;99911.41;5007268;28;19917;-78
2022/12/14 09:04:46;;;;;;;;;;;;;;;5.72;51.71;99904.69;5007697;28;19960;-78
2022/12/14 09:07:12;;;;;;;;;;;;;;;5.69;52.28;99899.41;5007140;28;19952;-78
2022/12/14 09:09:37;;;;;;;;;;;;;;;5.83;50.76;99899.53;5007831;28;19968;-78
2022/12/14 09:12:05;;;;;;;;;;;;;;;6.14;50.40;99889.28;5007552;28;19913;-78
2022/12/14 09:14:31;;;;;;;;;;;;;;;5.78;50.15;99890.78;5006967;28;19951;-78
2022/12/14 09:16:56;;;;;;;;;;;;;;;5.75;50.85;99885.50;5010445;28;20393;-78
2022/12/14 09:19:22;;;;;;;;;;;;;;;6.00;50.50;99889.22;5011223;28;20326;-78
2022/12/14 09:21:47;;;;;;;;;;;;;;;5.89;50.33;99890.84;5011167;28;19933;-78
2022/12/14 09:24:12;;;;;;;;;;;;;;;5.95;50.21;99897.84;5011114;28;19913;-79
2022/12/14 09:26:38;;;;;;;;;;;;;;;6.02;50.00;99899.69;5010959;28;19914;-79
2022/12/14 09:29:03;;;;;;;;;;;;;;;6.22;49.34;99889.34;5010985;28;20288;-78
2022/12/14 09:31:28;;;;;;;;;;;;;;;6.48;48.70;99886.00;5010626;28;19914;-78
2022/12/14 09:33:54;;;;;;;;;;;;;;;6.42;49.31;99876.34;5010501;28;19917;-78
2022/12/14 09:36:21;;;;;;;;;;;;;;;6.48;49.29;99867.66;5010839;28;19975;-78
2022/12/14 09:38:46;;;;;;;;;;;;;;;6.43;49.99;99854.53;5010968;28;20027;-78
2022/12/14 09:41:14;;;;;;;;;;;;;;;5.57;51.71;99846.97;5010779;28;20376;-78
2022/12/14 09:43:41;;;;;;;;;;;;;;;5.71;51.64;99826.16;4992994;28;19917;-79
2022/12/14 09:46:26;;;;;;;;;;;;;;;5.46;51.57;99818.13;5010342;28;20365;-77
2022/12/14 09:48:55;;;;;;;;;;;;;;;5.29;52.73;99812.75;5009819;28;19918;-78
2022/12/14 09:51:21;;;;;;;;;;;;;;;5.44;52.40;99817.25;5009666;28;19936;-77
2022/12/14 09:53:49;;;;;;;;;;;;;;;5.56;52.55;99809.47;5009566;28;19924;-79
2022/12/14 09:56:16;;;;;;;;;;;;;;;5.76;50.78;99811.34;5009944;28;19924;-78
2022/12/14 09:58:45;;;;;;;;;;;;;;;5.61;51.20;99817.38;5009706;28;20409;-79
2022/12/14 10:01:23;;;;;;;;;;;;;;;5.62;51.71;99823.47;4992476;28;19952;-78
2022/12/14 10:03:54;;;;;;;;;;;;;;;6.25;51.34;99826.47;5000892;28;20012;-79
2022/12/14 10:06:26;;;;;;;;;;;;;;;6.45;50.51;99826.56;5005265;28;19933;-80
2022/12/14 10:09:10;;;;;;;;;;;;;;;6.48;49.86;99823.97;5007948;28;19935;-78
2022/12/14 10:11:49;;;;;;;;;;;;;;;6.37;48.29;99817.81;4997676;28;19925;-79
2022/12/14 10:14:21;;;;;;;;;;;;;;;5.80;49.66;99807.88;5003043;28;19929;-79
2022/12/14 10:17:11;;;;;;;;;;;;;;;5.70;49.90;99806.06;4990050;28;19924;-78
2022/12/14 10:19:52;;;;;;;;;;;;;;;5.82;49.96;99807.88;4994483;28;19921;-79
2022/12/14 10:22:20;;;;;;;;;;;;;;;5.76;49.73;99807.84;4996271;28;19984;-79
2022/12/14 10:24:48;;;;;;;;;;;;;;;5.66;50.56;99804.31;5000744;28;20681;-79
2022/12/14 10:27:19;;;;;;;;;;;;;;;5.78;52.97;99812.25;5007577;28;19920;-81
2022/12/14 10:29:58;;;;;;;;;;;;;;;6.30;50.32;99813.41;5008567;28;19924;-80
2022/12/14 10:32:29;;;;;;;;;;;;;;;6.39;49.31;99816.94;5008490;28;19917;-80
2022/12/14 10:34:54;;;;;;;;;;;;;;;6.12;51.13;99819.41;5003495;28;20016;-80
2022/12/14 10:37:23;;;;;;;;;;;;;;;6.35;49.64;99819.53;4989416;28;20743;-80
2022/12/14 10:39:54;;;;;;;;;;;;;;;6.57;48.76;99807.41;4989705;28;19984;-79
2022/12/14 10:42:22;;;;;;;;;;;;;;;6.68;49.36;99805.69;4997174;28;19928;-81
2022/12/14 10:45:05;;;;;;;;;;;;;;;6.44;48.32;99803.84;5007998;28;20465;-80
2022/12/14 10:47:36;;;;;;;;;;;;;;;6.61;48.17;99804.78;4990467;28;19921;-79
2022/12/14 10:50:12;;;;;;;;;;;;;;;6.03;49.28;99801.94;4990831;28;19913;-80
2022/12/14 10:52:40;;;;;;;;;;;;;;;6.07;49.90;99786.25;5008725;28;19968;-79
2022/12/14 10:55:26;;;;;;;;;;;;;;;6.24;49.74;99782.81;5008799;28;19995;-79
2022/12/14 10:57:51;;;;;;;;;;;;;;;6.38;49.17;99777.63;5008199;28;20004;-79
2022/12/14 11:00:16;;;;;;;;;;;;;;;6.63;48.17;99761.09;5009025;28;20016;-79
2022/12/14 11:02:43;;;;;;;;;;;;;;;6.81;48.89;99752.41;5006409;28;19964;-79
2022/12/14 11:05:27;;;;;;;;;;;;;;;6.60;50.16;99755.00;5007970;28;19917;-78
2022/12/14 11:07:54;;;;;;;;;;;;;;;5.92;50.00;99750.34;5008974;28;19917;-80
2022/12/14 11:10:19;;;;;;;;;;;;;;;6.51;49.93;99747.97;5008607;28;19972;-80
2022/12/14 11:13:11;;;;;;;;;;;;;;;6.53;50.06;99746.22;5008663;28;19961;-78
2022/12/14 11:15:38;;;;;;;;;;;;;;;6.60;49.52;99758.47;5004752;28;20379;-78
2022/12/14 11:18:05;;;;;;;;;;;;;;;6.68;48.78;99748.00;5008173;28;19921;-79
2022/12/14 11:20:32;;;;;;;;;;;;;;;6.77;49.93;99755.88;5007893;28;19957;-80
2022/12/14 11:23:17;;;;;;;;;;;;;;;6.81;49.68;99736.66;4989816;28;20380;-78
2022/12/14 11:25:43;;;;;;;;;;;;;;;6.66;49.82;99733.13;5008053;28;20085;-78
2022/12/14 11:28:18;;;;;;;;;;;;;;;6.28;50.40;99719.94;5008070;28;19963;-78
2022/12/14 11:31:02;;;;;;;;;;;;;;;6.59;50.27;99721.78;5007909;28;19917;-79
2022/12/14 11:33:45;;;;;;;;;;;;;;;6.93;49.90;99720.03;4997271;28;20319;-80
2022/12/14 11:36:22;;;;;;;;;;;;;;;7.15;48.42;99720.94;5007645;28;20052;-80
2022/12/14 11:38:58;;;;;;;;;;;;;;;7.01;48.25;99714.81;5007902;28;19917;-80
2022/12/14 11:41:32;;;;;;;;;;;;;;;6.89;48.93;99704.31;5008311;28;20004;-79
2022/12/14 11:44:16;;;;;;;;;;;;;;;6.76;49.14;99713.94;5007135;28;19956;-79
2022/12/14 11:46:45;;;;;;;;;;;;;;;6.50;50.55;99712.13;5007564;28;19920;-79
2022/12/14 11:49:24;;;;;;;;;;;;;;;6.53;50.84;99711.28;5007751;28;19921;-79
2022/12/14 11:52:04;;;;;;;;;;;;;;;6.89;49.32;99705.22;5008165;28;20647;-80
2022/12/14 11:54:31;;;;;;;;;;;;;;;6.83;49.35;99697.34;5007847;28;19913;-79
2022/12/14 11:57:11;;;;;;;;;;;;;;;7.01;50.37;99708.69;5008101;28;19913;-80
2022/12/14 11:59:57;;;;;;;;;;;;;;;6.85;50.57;99707.81;5007600;28;19917;-79
2022/12/14 12:02:28;;;;;;;;;;;;;;;6.59;50.89;99708.66;5007564;28;19925;-79
2022/12/14 12:05:05;;;;;;;;;;;;;;;6.57;51.95;99706.03;5007486;28;19913;-79
2022/12/14 12:07:32;;;;;;;;;;;;;;;6.96;51.89;99698.19;4990381;28;19917;-79
2022/12/14 12:10:06;;;;;;;;;;;;;;;6.99;52.02;99696.44;4989984;28;20438;-79
2022/12/14 12:12:32;;;;;;;;;;;;;;;7.12;51.34;99705.19;5008261;28;19924;-80
2022/12/14 12:14:58;;;;;;;;;;;;;;;7.28;50.11;99690.31;5008355;28;20386;-78
2022/12/14 12:17:41;;;;;;;;;;;;;;;7.51;49.83;99682.38;4987891;28;19924;-78
2022/12/14 12:20:24;;;;;;;;;;;;;;;7.30;50.68;99691.16;5007159;28;20004;-80
2022/12/14 12:23:01;;;;;;;;;;;;;;;6.91;51.05;99679.84;5007266;28;20016;-79
2022/12/14 12:25:30;;;;;;;;;;;;;;;6.94;51.73;99673.75;5007397;28;20426;-80
2022/12/14 12:28:02;;;;;;;;;;;;;;;7.11;50.78;99671.09;5007834;28;19920;-79
2022/12/14 12:30:31;;;;;;;;;;;;;;;7.59;50.21;99668.38;5008020;28;20387;-80
2022/12/14 12:33:01;;;;;;;;;;;;;;;7.83;49.42;99664.75;5007598;28;20008;-80
2022/12/14 12:35:41;;;;;;;;;;;;;;;7.70;49.16;99666.56;4990201;28;20341;-81
2022/12/14 12:38:13;;;;;;;;;;;;;;;7.29;50.78;99660.56;5007026;28;20319;-79
2022/12/14 12:40:47;;;;;;;;;;;;;;;7.28;50.70;99665.81;5007217;28;19913;-80
2022/12/14 12:43:12;;;;;;;;;;;;;;;7.16;49.82;99654.44;5007193;28;19936;-80
2022/12/14 12:45:37;;;;;;;;;;;;;;;7.47;50.98;99657.00;5007025;28;19917;-79
2022/12/14 12:48:10;;;;;;;;;;;;;;;7.34;52.60;99665.81;5007131;28;19918;-80
2022/12/14 12:50:38;;;;;;;;;;;;;;;7.05;52.30;99671.09;5006464;28;19924;-80
2022/12/14 12:53:13;;;;;;;;;;;;;;;7.08;51.13;99679.84;5006910;28;19960;-80
2022/12/14 12:55:46;;;;;;;;;;;;;;;7.07;52.12;99677.22;5006888;28;19917;-80
2022/12/14 12:58:25;;;;;;;;;;;;;;;6.97;53.22;99681.59;5007388;28;19944;-79
2022/12/14 13:00:53;;;;;;;;;;;;;;;6.98;52.70;99676.34;5006846;28;19928;-80
2022/12/14 13:03:24;;;;;;;;;;;;;;;7.13;53.65;99682.44;5006555;28;19917;-79
2022/12/14 13:05:51;;;;;;;;;;;;;;;7.43;52.48;99685.88;5006770;28;19923;-78
2022/12/14 13:08:27;;;;;;;;;;;;;;;7.70;51.22;99687.56;5006694;28;19917;-79
2022/12/14 13:10:54;;;;;;;;;;;;;;;7.90;51.33;99690.13;5006775;28;19917;-79
2022/12/14 13:13:27;;;;;;;;;;;;;;;8.04;50.01;99684.81;5007118;28;19917;-80
2022/12/14 13:15:54;;;;;;;;;;;;;;;8.00;49.98;99688.31;4989152;28;20342;-81
2022/12/14 13:18:25;;;;;;;;;;;;;;;7.43;51.48;99686.78;5006835;28;20435;-82